Terminal Aerodrome Forecast
Issued by NWS

Home | Current Version | Previous Version | Text Only | Print | Product List | Glossary On
Versions: 1 2 3 4 5 6 7 8 9 10 11 12 13 14 15 16 17 18 19 20 21
000
FTUS46 KSEW 281700
TAFBLI
TAF
KBLI 281722Z 2818/2918 30012KT P6SM -RA OVC040
     FM290200 03015G25KT P6SM BKN040
     FM290400 03025G35KT P6SM BKN040
     FM291700 05020G30KT P6SM SCT040=

USA.gov is the U.S. government's official web portal to all federal, state and local government web resources and services.